createdAt,value
2022-09-07T00:02:08.596Z,2.97
2022-09-07T00:04:35.271Z,3.30
2022-09-07T00:07:01.889Z,3.23
2022-09-07T00:09:28.987Z,3.30
2022-09-07T00:11:55.535Z,3.70
2022-09-07T00:14:22.078Z,3.23
2022-09-07T00:16:48.710Z,3.20
2022-09-07T00:19:15.260Z,2.93
2022-09-07T00:21:41.802Z,3.70
2022-09-07T00:24:08.326Z,3.27
2022-09-07T00:26:35.431Z,3.50
2022-09-07T00:29:04.003Z,3.37
2022-09-07T00:31:31.719Z,3.10
2022-09-07T00:34:00.448Z,3.20
2022-09-07T00:36:27.828Z,3.63
2022-09-07T00:38:54.521Z,3.90
2022-09-07T00:41:22.609Z,3.43
2022-09-07T00:43:57.685Z,3.90
2022-09-07T00:46:31.956Z,4.10
2022-09-07T00:49:09.004Z,3.40
2022-09-07T00:51:57.984Z,3.73
2022-09-07T00:54:39.905Z,4.13
2022-09-07T00:57:07.467Z,4.20
2022-09-07T00:59:42.784Z,4.37
2022-09-07T01:02:09.648Z,3.90
2022-09-07T01:04:36.550Z,4.17
2022-09-07T01:07:03.921Z,3.70
2022-09-07T01:09:31.106Z,4.57
2022-09-07T01:12:00.198Z,3.90
2022-09-07T01:14:31.595Z,4.20
2022-09-07T01:17:03.886Z,4.47
2022-09-07T01:19:57.471Z,4.23
2022-09-07T01:22:35.854Z,3.87
2022-09-07T01:25:17.704Z,3.90
2022-09-07T01:27:58.490Z,3.73
2022-09-07T01:30:25.990Z,3.53
2022-09-07T01:33:25.371Z,3.30
2022-09-07T01:36:17.855Z,3.27
2022-09-07T01:38:52.482Z,3.10
2022-09-07T01:41:32.669Z,3.80
2022-09-07T01:44:17.519Z,3.60
2022-09-07T01:47:01.357Z,3.50
2022-09-07T01:49:27.831Z,3.53
2022-09-07T01:52:02.238Z,3.60
2022-09-07T01:54:43.531Z,3.20
2022-09-07T01:57:19.060Z,3.60
2022-09-07T01:59:50.689Z,3.40
2022-09-07T02:02:23.438Z,3.20
2022-09-07T02:04:52.698Z,3.20
2022-09-07T02:07:25.185Z,3.30
2022-09-07T02:09:57.253Z,3.50
2022-09-07T02:12:36.454Z,3.20
2022-09-07T02:15:10.552Z,3.53
2022-09-07T02:17:43.006Z,4.27
2022-09-07T02:20:18.722Z,3.20
2022-09-07T02:22:52.130Z,3.37
2022-09-07T02:25:24.145Z,3.23
2022-09-07T02:27:56.439Z,3.30
2022-09-07T02:30:23.079Z,3.00
2022-09-07T02:32:49.698Z,3.00
2022-09-07T02:35:16.871Z,3.00
2022-09-07T02:37:44.607Z,3.17
2022-09-07T02:40:12.084Z,3.50
2022-09-07T02:42:39.441Z,3.23
2022-09-07T02:45:09.359Z,3.60
2022-09-07T02:48:03.413Z,3.57
2022-09-07T02:50:53.663Z,3.67
2022-09-07T02:53:38.501Z,3.77
2022-09-07T02:56:46.429Z,4.03
2022-09-07T02:59:29.248Z,3.13
2022-09-07T03:02:05.128Z,3.50
2022-09-07T03:04:47.006Z,3.67
2022-09-07T03:07:21.369Z,4.50
2022-09-07T03:09:53.279Z,3.80
2022-09-07T03:12:19.920Z,4.00
2022-09-07T03:14:46.818Z,3.50
2022-09-07T03:17:17.010Z,3.30
2022-09-07T03:19:43.526Z,3.40
2022-09-07T03:22:10.124Z,3.80
2022-09-07T03:24:37.069Z,3.70
2022-09-07T03:27:03.999Z,3.23
2022-09-07T03:29:31.105Z,3.40
2022-09-07T03:31:57.639Z,3.40
2022-09-07T03:34:24.242Z,3.17
2022-09-07T03:36:50.795Z,3.33
2022-09-07T03:39:20.942Z,2.83
2022-09-07T03:41:47.873Z,4.03
2022-09-07T03:44:14.446Z,3.63
2022-09-07T03:46:41.099Z,3.53
2022-09-07T03:49:07.642Z,3.40
2022-09-07T03:51:34.187Z,3.70
2022-09-07T03:54:00.787Z,4.50
2022-09-07T03:56:27.636Z,5.43
2022-09-07T03:58:55.467Z,3.70
2022-09-07T04:01:24.409Z,3.20
2022-09-07T04:03:51.681Z,3.37
2022-09-07T04:06:19.447Z,3.60
2022-09-07T04:08:46.430Z,4.10
2022-09-07T04:11:15.991Z,4.03
2022-09-07T04:13:43.281Z,4.00
2022-09-07T04:16:18.843Z,3.40
2022-09-07T04:18:45.911Z,3.60
2022-09-07T04:21:12.757Z,3.53
2022-09-07T04:23:40.764Z,3.40
2022-09-07T04:26:12.809Z,4.17
2022-09-07T04:28:39.391Z,3.53
2022-09-07T04:31:06.275Z,3.70
2022-09-07T04:33:34.346Z,3.70
2022-09-07T04:36:01.896Z,3.90
2022-09-07T04:38:29.303Z,3.77
2022-09-07T04:41:06.502Z,3.83
2022-09-07T04:43:33.047Z,4.03
2022-09-07T04:46:03.422Z,3.60
2022-09-07T04:48:30.284Z,3.83
2022-09-07T04:51:05.872Z,4.00
2022-09-07T04:53:33.870Z,3.30
2022-09-07T04:56:00.677Z,3.37
2022-09-07T04:58:27.410Z,3.27
2022-09-07T05:00:54.440Z,3.23
2022-09-07T05:03:21.351Z,3.97
2022-09-07T05:05:48.050Z,3.80
2022-09-07T05:08:14.613Z,4.17
2022-09-07T05:10:50.900Z,3.53
2022-09-07T05:13:17.522Z,3.83
2022-09-07T05:15:44.171Z,3.63
2022-09-07T05:18:10.903Z,3.00
2022-09-07T05:20:37.693Z,3.77
2022-09-07T05:23:04.234Z,4.07
2022-09-07T05:25:31.373Z,7.13
2022-09-07T05:27:57.914Z,4.03
2022-09-07T05:33:11.158Z,6.90
2022-09-07T05:35:37.709Z,5.17
2022-09-07T05:38:04.341Z,4.00
2022-09-07T05:40:32.144Z,4.20
2022-09-07T05:42:59.448Z,4.20
2022-09-07T05:45:26.312Z,4.17
2022-09-07T05:47:54.302Z,3.93
2022-09-07T05:50:20.851Z,4.90
2022-09-07T05:52:48.510Z,4.40
2022-09-07T05:55:29.571Z,4.20
2022-09-07T05:57:56.750Z,4.33
2022-09-07T06:00:24.274Z,4.53
2022-09-07T06:02:50.857Z,4.00
2022-09-07T06:05:17.653Z,4.13
2022-09-07T06:07:48.165Z,4.20
2022-09-07T06:13:02.094Z,4.97
2022-09-07T06:15:28.679Z,4.30
2022-09-07T06:17:55.288Z,4.00
2022-09-07T06:20:21.803Z,4.30
2022-09-07T06:22:48.426Z,4.47
2022-09-07T06:25:15.064Z,4.33
2022-09-07T06:27:41.617Z,4.50
2022-09-07T06:30:08.735Z,4.63
2022-09-07T06:32:46.002Z,3.97
2022-09-07T06:35:13.600Z,4.00
2022-09-07T06:37:40.667Z,3.90
2022-09-07T06:43:55.478Z,4.03
2022-09-07T06:49:09.298Z,4.37
2022-09-07T06:51:35.854Z,3.90
2022-09-07T06:56:49.034Z,3.63
2022-09-07T06:59:15.572Z,3.90
2022-09-07T07:01:42.085Z,3.77
2022-09-07T07:04:08.625Z,3.90
2022-09-07T07:06:39.956Z,4.03
2022-09-07T07:09:08.448Z,3.60
2022-09-07T07:11:37.144Z,4.03
2022-09-07T07:14:04.125Z,3.37
2022-09-07T07:16:30.872Z,3.27
2022-09-07T07:18:58.024Z,3.13
2022-09-07T07:21:24.624Z,2.60
2022-09-07T07:23:52.605Z,2.63
2022-09-07T07:26:21.850Z,2.60
2022-09-07T07:31:26.799Z,2.57
2022-09-07T07:33:54.062Z,2.87
2022-09-07T07:36:23.179Z,3.67
2022-09-07T07:38:59.793Z,2.50
2022-09-07T07:44:18.762Z,2.47
2022-09-07T07:46:51.102Z,2.30
2022-09-07T07:49:18.579Z,2.87
2022-09-07T07:54:34.135Z,2.30
2022-09-07T07:57:00.648Z,2.80
2022-09-07T07:59:27.631Z,2.60
2022-09-07T08:01:54.396Z,2.63
2022-09-07T08:04:21.162Z,2.60
2022-09-07T08:06:47.711Z,2.50
2022-09-07T08:09:14.371Z,2.47
2022-09-07T08:11:41.501Z,2.63
2022-09-07T08:14:08.651Z,2.63
2022-09-07T08:16:36.327Z,2.87
2022-09-07T08:19:03.429Z,2.63
2022-09-07T08:21:30.017Z,2.53
2022-09-07T08:23:56.853Z,2.13
2022-09-07T08:26:23.361Z,2.43
2022-09-07T08:28:49.874Z,2.50
2022-09-07T08:31:17.424Z,2.37
2022-09-07T08:33:44.606Z,2.20
2022-09-07T08:36:16.716Z,2.47
2022-09-07T08:38:43.894Z,2.63
2022-09-07T08:41:40.640Z,2.20
2022-09-07T08:44:18.586Z,2.33
2022-09-07T08:47:22.850Z,2.90
2022-09-07T08:50:07.011Z,2.23
2022-09-07T08:52:45.037Z,2.40
2022-09-07T08:55:21.026Z,2.30
2022-09-07T08:57:56.578Z,2.70
2022-09-07T09:00:23.156Z,2.23
2022-09-07T09:05:43.326Z,2.50
2022-09-07T09:08:45.562Z,2.30
2022-09-07T09:11:46.503Z,2.30
2022-09-07T09:14:27.107Z,2.20
2022-09-07T09:17:09.121Z,2.47
2022-09-07T09:19:57.894Z,2.60
2022-09-07T09:22:28.335Z,2.10
2022-09-07T09:25:05.732Z,2.30
2022-09-07T09:27:32.251Z,2.50
2022-09-07T09:29:58.753Z,2.17
2022-09-07T09:32:33.361Z,2.20
2022-09-07T09:35:11.458Z,2.57
2022-09-07T09:37:39.781Z,2.80
2022-09-07T09:40:09.394Z,2.53
2022-09-07T09:42:38.821Z,3.00
2022-09-07T09:45:19.300Z,3.30
2022-09-07T09:47:51.083Z,3.10
2022-09-07T09:53:27.405Z,3.13
2022-09-07T09:55:54.717Z,3.60
2022-09-07T10:01:35.329Z,3.50
2022-09-07T10:04:25.609Z,3.33
2022-09-07T10:06:58.040Z,3.40
2022-09-07T10:09:40.601Z,3.60
2022-09-07T10:12:22.689Z,3.50
2022-09-07T10:14:49.237Z,3.40
2022-09-07T10:17:31.991Z,3.87
2022-09-07T10:20:22.936Z,3.20
2022-09-07T10:22:52.601Z,3.57
2022-09-07T10:25:48.870Z,3.60
2022-09-07T10:28:22.544Z,3.80
2022-09-07T10:31:15.331Z,3.53
2022-09-07T10:36:49.919Z,3.80
2022-09-07T10:39:31.545Z,3.40
2022-09-07T10:42:29.060Z,3.80
2022-09-07T10:45:10.745Z,3.40
2022-09-07T10:47:52.449Z,3.20
2022-09-07T10:50:31.904Z,3.10
2022-09-07T10:53:43.109Z,3.30
2022-09-07T10:56:35.530Z,4.15
2022-09-07T11:02:38.314Z,2.90
2022-09-07T11:05:38.516Z,3.00
2022-09-07T11:09:14.607Z,3.35
2022-09-07T11:14:20.944Z,3.25
2022-09-07T11:16:55.434Z,3.30
2022-09-07T11:19:38.224Z,3.40
2022-09-07T11:22:28.100Z,3.50
2022-09-07T11:28:01.705Z,3.72
2022-09-07T11:30:40.847Z,4.03
2022-09-07T11:33:20.846Z,3.75
2022-09-07T11:36:12.237Z,4.13
2022-09-07T11:38:45.603Z,4.30
2022-09-07T11:41:15.174Z,4.40
2022-09-07T11:43:55.847Z,4.53
2022-09-07T11:46:28.149Z,4.15
2022-09-07T11:48:58.576Z,4.63
2022-09-07T11:51:53.690Z,4.50
2022-09-07T11:54:23.271Z,4.65
2022-09-07T11:57:18.954Z,4.25
2022-09-07T12:00:05.728Z,4.20
2022-09-07T12:03:09.851Z,4.13
2022-09-07T12:06:01.136Z,4.35
2022-09-07T12:08:58.598Z,4.40
2022-09-07T12:11:56.157Z,3.45
2022-09-07T12:14:28.486Z,3.38
2022-09-07T12:17:08.475Z,2.80
2022-09-07T12:19:35.293Z,2.78
2022-09-07T12:22:02.031Z,2.90
2022-09-07T12:24:54.398Z,2.90
2022-09-07T12:27:20.872Z,2.58
2022-09-07T12:30:11.074Z,2.47
2022-09-07T12:32:55.417Z,3.25
2022-09-07T12:35:31.639Z,3.08
2022-09-07T12:38:26.898Z,2.90
2022-09-07T12:41:22.963Z,3.45
2022-09-07T12:43:49.504Z,3.40
2022-09-07T12:46:40.396Z,3.33
2022-09-07T12:49:18.814Z,2.70
2022-09-07T12:52:16.216Z,2.90
2022-09-07T12:55:26.571Z,2.45
2022-09-07T12:58:11.581Z,2.47
2022-09-07T13:01:15.392Z,3.38
2022-09-07T13:03:51.920Z,2.92
2022-09-07T13:09:34.819Z,2.40
2022-09-07T13:15:09.621Z,2.80
2022-09-07T13:17:42.947Z,2.30
2022-09-07T13:20:09.387Z,2.38
2022-09-07T13:22:36.013Z,2.30
2022-09-07T13:25:20.202Z,2.40
2022-09-07T13:28:00.754Z,2.25
2022-09-07T13:30:33.467Z,2.45
2022-09-07T13:33:24.745Z,2.63
2022-09-07T13:36:05.733Z,2.78
2022-09-07T13:38:34.896Z,2.38
2022-09-07T13:41:13.387Z,2.65
2022-09-07T13:43:40.319Z,2.55
2022-09-07T13:46:40.591Z,2.28
2022-09-07T13:49:27.685Z,2.13
2022-09-07T13:52:19.191Z,2.30
2022-09-07T13:55:13.176Z,2.20
2022-09-07T13:58:06.315Z,2.40
2022-09-07T14:00:34.089Z,2.13
2022-09-07T14:03:05.696Z,2.03
2022-09-07T14:05:32.286Z,2.53
2022-09-07T14:07:59.048Z,2.03
2022-09-07T14:10:26.526Z,2.47
2022-09-07T14:13:14.108Z,2.28
2022-09-07T14:15:48.008Z,2.22
2022-09-07T14:18:16.065Z,2.80
2022-09-07T14:20:46.598Z,2.25
2022-09-07T14:23:19.353Z,2.33
2022-09-07T14:28:37.365Z,3.05
2022-09-07T14:31:05.947Z,2.22
2022-09-07T14:33:32.929Z,2.50
2022-09-07T14:35:59.905Z,2.45
2022-09-07T14:41:18.862Z,2.58
2022-09-07T14:43:56.725Z,2.10
2022-09-07T14:46:29.326Z,2.03
2022-09-07T14:48:57.982Z,2.13
2022-09-07T14:51:35.216Z,2.28
2022-09-07T14:54:05.978Z,3.10
2022-09-07T14:56:39.201Z,2.60
2022-09-07T14:59:32.887Z,2.50
2022-09-07T15:02:18.360Z,2.78
2022-09-07T15:04:50.670Z,2.42
2022-09-07T15:07:40.170Z,2.75
2022-09-07T15:10:26.765Z,3.30
2022-09-07T15:12:56.206Z,2.58
2022-09-07T15:15:34.583Z,2.80
2022-09-07T15:18:25.610Z,2.63
2022-09-07T15:20:52.917Z,2.47
2022-09-07T15:23:20.043Z,2.63
2022-09-07T15:25:53.478Z,2.67
2022-09-07T15:34:11.442Z,2.53
2022-09-07T15:36:40.704Z,2.63
2022-09-07T15:39:13.434Z,2.13
2022-09-07T15:41:39.931Z,2.40
2022-09-07T15:44:06.438Z,2.17
2022-09-07T15:46:33.092Z,2.50
2022-09-07T15:49:01.682Z,2.60
2022-09-07T15:54:17.247Z,2.90
2022-09-07T15:57:48.111Z,2.70
2022-09-07T15:59:30.721Z,2.45
2022-09-07T16:01:58.151Z,2.60
2022-09-07T16:04:25.193Z,3.08
2022-09-07T16:06:51.834Z,2.92
2022-09-07T16:09:21.688Z,2.80
2022-09-07T16:11:50.073Z,4.40
2022-09-07T16:14:17.555Z,2.70
2022-09-07T16:19:34.618Z,2.90
2022-09-07T16:22:01.855Z,3.05
2022-09-07T16:24:28.762Z,2.70
2022-09-07T16:26:55.398Z,2.65
2022-09-07T16:29:21.932Z,2.65
2022-09-07T16:34:35.255Z,2.95
2022-09-07T16:37:01.841Z,2.83
2022-09-07T16:39:29.197Z,3.08
2022-09-07T16:41:55.962Z,2.85
2022-09-07T16:44:22.681Z,2.80
2022-09-07T16:46:50.419Z,3.17
2022-09-07T16:49:17.814Z,3.38
2022-09-07T16:51:45.783Z,3.55
2022-09-07T16:54:13.667Z,4.03
2022-09-07T16:56:40.308Z,4.70
2022-09-07T16:59:09.639Z,5.10
2022-09-07T17:01:40.268Z,5.30
2022-09-07T17:04:10.945Z,4.53
2022-09-07T17:06:38.964Z,4.03
2022-09-07T17:09:06.346Z,3.57
2022-09-07T17:11:34.885Z,3.83
2022-09-07T17:14:01.966Z,4.00
2022-09-07T17:16:31.295Z,3.80
2022-09-07T17:21:46.443Z,3.53
2022-09-07T17:24:13.093Z,3.57
2022-09-07T17:26:42.150Z,3.43
2022-09-07T17:29:10.408Z,3.23
2022-09-07T17:34:24.435Z,3.27
2022-09-07T17:36:51.589Z,3.37
2022-09-07T17:39:19.277Z,3.20
2022-09-07T17:41:48.477Z,3.50
2022-09-07T17:44:15.796Z,3.70
2022-09-07T17:46:42.371Z,3.70
2022-09-07T17:49:12.412Z,3.17
2022-09-07T17:51:39.695Z,3.43
2022-09-07T17:54:11.417Z,3.00
2022-09-07T17:56:39.847Z,3.70
2022-09-07T18:01:54.439Z,2.67
2022-09-07T18:04:21.738Z,2.87
2022-09-07T18:06:48.459Z,2.40
2022-09-07T18:09:15.038Z,2.87
2022-09-07T18:11:45.407Z,2.53
2022-09-07T18:14:14.579Z,2.53
2022-09-07T18:16:43.173Z,2.60
2022-09-07T18:19:11.974Z,3.10
2022-09-07T18:21:41.205Z,2.80
2022-09-07T18:24:20.197Z,2.60
2022-09-07T18:26:50.409Z,2.53
2022-09-07T18:29:28.695Z,2.43
2022-09-07T18:31:57.954Z,2.80
2022-09-07T18:34:24.605Z,2.97
2022-09-07T18:36:51.313Z,4.40
2022-09-07T18:39:18.397Z,2.90
2022-09-07T18:41:45.131Z,3.07
2022-09-07T18:46:58.439Z,3.63
2022-09-07T18:49:25.264Z,3.67
2022-09-07T18:54:41.418Z,3.00
2022-09-07T18:57:08.197Z,2.83
2022-09-07T18:59:34.733Z,3.10
2022-09-07T19:02:04.928Z,3.17
2022-09-07T19:07:20.919Z,3.07
2022-09-07T19:09:48.250Z,3.03
2022-09-07T19:12:15.182Z,3.10
2022-09-07T19:14:42.287Z,3.33
2022-09-07T19:17:11.109Z,3.60
2022-09-07T19:19:38.739Z,3.27
2022-09-07T19:22:06.048Z,3.23
2022-09-07T19:24:33.399Z,3.80
2022-09-07T19:27:01.050Z,3.20
2022-09-07T19:29:28.218Z,3.43
2022-09-07T19:32:07.819Z,3.40
2022-09-07T19:34:42.998Z,3.23
2022-09-07T19:37:11.579Z,3.50
2022-09-07T19:39:38.176Z,3.63
2022-09-07T19:42:05.962Z,3.10
2022-09-07T19:44:32.860Z,3.33
2022-09-07T19:47:00.660Z,3.60
2022-09-07T19:49:27.966Z,4.10
2022-09-07T19:51:54.849Z,3.00
2022-09-07T19:54:21.763Z,3.20
2022-09-07T19:56:48.443Z,3.47
2022-09-07T19:59:15.102Z,3.63
2022-09-07T20:01:46.026Z,3.10
2022-09-07T20:04:19.686Z,3.90
2022-09-07T20:06:49.815Z,3.50
2022-09-07T20:09:18.245Z,4.50
2022-09-07T20:11:46.951Z,3.50
2022-09-07T20:14:17.284Z,3.53
2022-09-07T20:16:44.121Z,3.80
2022-09-07T20:19:11.926Z,4.10
2022-09-07T20:21:38.711Z,4.00
2022-09-07T20:24:05.784Z,3.80
2022-09-07T20:26:32.959Z,4.10
2022-09-07T20:29:25.679Z,4.00
2022-09-07T20:31:47.108Z,3.83
2022-09-07T20:34:14.534Z,3.73
2022-09-07T20:36:41.387Z,4.07
2022-09-07T20:39:08.545Z,4.23
2022-09-07T20:41:35.404Z,4.03
2022-09-07T20:44:04.214Z,4.07
2022-09-07T20:46:31.585Z,3.90
2022-09-07T20:48:58.654Z,3.13
2022-09-07T20:51:25.927Z,3.43
2022-09-07T20:53:52.794Z,3.23
2022-09-07T20:56:21.677Z,3.47
2022-09-07T20:58:49.519Z,3.77
2022-09-07T21:01:18.121Z,4.00
2022-09-07T21:03:49.706Z,4.20
2022-09-07T21:06:17.798Z,4.10
2022-09-07T21:08:45.829Z,4.00
2022-09-07T21:11:19.334Z,4.10
2022-09-07T21:13:46.949Z,3.90
2022-09-07T21:16:16.296Z,3.40
2022-09-07T21:18:44.484Z,3.37
2022-09-07T21:21:20.565Z,3.10
2022-09-07T21:23:48.045Z,3.50
2022-09-07T21:26:14.802Z,3.43
2022-09-07T21:28:41.352Z,2.90
2022-09-07T21:31:09.351Z,2.70
2022-09-07T21:33:37.683Z,2.80
2022-09-07T21:36:06.245Z,3.03
2022-09-07T21:38:34.733Z,3.57
2022-09-07T21:41:12.795Z,3.90
2022-09-07T21:43:39.978Z,5.13
2022-09-07T21:46:11.523Z,4.77
2022-09-07T21:48:38.529Z,4.40
2022-09-07T21:51:05.666Z,4.47
2022-09-07T21:53:32.658Z,4.50
2022-09-07T21:56:01.847Z,4.57
2022-09-07T21:58:29.403Z,4.17
2022-09-07T22:00:57.153Z,4.27
2022-09-07T22:03:25.251Z,4.00
2022-09-07T22:05:52.711Z,3.00
2022-09-07T22:08:19.614Z,3.03
2022-09-07T22:10:46.622Z,3.67
2022-09-07T22:13:13.414Z,3.13
2022-09-07T22:15:41.632Z,3.20
2022-09-07T22:18:11.987Z,2.60
2022-09-07T22:20:38.892Z,3.00
2022-09-07T22:23:05.865Z,2.90
2022-09-07T22:25:33.223Z,2.87
2022-09-07T22:27:59.963Z,3.23
2022-09-07T22:30:26.776Z,3.47
2022-09-07T22:32:53.620Z,3.30
2022-09-07T22:35:20.813Z,3.73
2022-09-07T22:37:47.368Z,3.97
2022-09-07T22:40:14.959Z,3.60
2022-09-07T22:42:41.991Z,3.57
2022-09-07T22:45:09.257Z,3.80
2022-09-07T22:47:35.786Z,3.57
2022-09-07T22:50:02.322Z,4.57
2022-09-07T22:52:28.879Z,3.73
2022-09-07T22:54:55.407Z,4.37
2022-09-07T22:57:21.985Z,3.83
2022-09-07T22:59:48.602Z,4.13
2022-09-07T23:02:15.190Z,4.53
2022-09-07T23:04:41.777Z,4.93
2022-09-07T23:07:08.494Z,4.97
2022-09-07T23:09:35.070Z,4.97
2022-09-07T23:12:01.798Z,5.37
2022-09-07T23:14:28.401Z,4.53
2022-09-07T23:16:54.989Z,5.33
2022-09-07T23:19:21.663Z,5.23
2022-09-07T23:21:48.451Z,5.50
2022-09-07T23:24:18.039Z,5.53
2022-09-07T23:26:44.838Z,4.77
2022-09-07T23:29:13.491Z,4.87
2022-09-07T23:31:40.983Z,4.80
2022-09-07T23:34:07.877Z,4.67
2022-09-07T23:36:34.597Z,4.80
2022-09-07T23:39:01.445Z,4.37
2022-09-07T23:41:28.866Z,4.73
2022-09-07T23:43:55.898Z,4.57
2022-09-07T23:46:23.084Z,4.27
2022-09-07T23:48:50.268Z,4.20
2022-09-07T23:51:22.777Z,4.70
2022-09-07T23:53:50.525Z,3.67
2022-09-07T23:56:17.407Z,3.30
2022-09-07T23:58:44.037Z,3.77
